world map with PTZ marked

PTZ - Airport

This information may not be accurate or current and is not valid for navigation or flight planning. No warranty of fitness for any purpose is made or implied.

flag of Pastazaflag of Ecuador

Donate via PayPal

Additional information is available on the NEW Great Circle Mapper

Location
City:  Shell, Pastaza, Ecuador
Name:Rio Amazonas
ICAO / IATA:SESM / PTZ

Details
Type:Airport (Aerodrome, Airfield)
Latitude:1°30'19"S (-1.505238)
Longitude:78°03'46"W (-78.062674)
Datum:WGS 1984
Elevation:3465 ft (1056 m)
Runways:1
Longest:5052 × 82 ft (1540 × 25 m)

Time
Timezone:UTC+29:08 (DST+31:08)
Local Time:

Weather
METAR:SESM  162300Z 19002KT 9999 -RA SCT023 BKN090 22/21 Q1016 RMK A3000

Related Locations
Nearby:
Farthest:SEQ: 12437 mi / 20015 km
Sungai Pakning Bengkalis, RI, ID

Find:

   beyond  
but within

Other Information
Maps:
Sources:

  


 


Great Circle Mapper   Great Circle Mapper
Great Circle Mapper FAQ   Great Circle Mapper FAQ
  Karl's Home Page
KLSē   KLSē Home
   GC on Facebook
Airlines of the World   Airlines of the World
Donate via PayPal


Copyright © 2004-2018, Karl L. Swartz. All rights reserved.
All trademarks mentioned herein belong to their respective owners.

Please see credits for attribution and copyright information.

Karl Swartz <karl@kls2.com>
  Powered by FreeBSD
Valid HTML 4.01!
Labeled with ICRA
hCard Microformat
Geo Microformat